Details From LIRF - Roma Fiumicino Leonardo Da Vinci
To LRBS - Bucarest Baneasa
Flight Number -
Tags Generated
Created
Modified
Stats Distance 627 nm / 1,162 km
Max Altitude 0 ft / 0 m
Waypoints 4
Social Downloads 2
Likes 0
Share VATSIM

Download

Looking for another format? Having issues loading an existing format? Contact us
Advertisement - Login to hide

Notes

Generated

Route

LIRF KUTAK BSW LRBS

ID Type Via Altitude Latitude Longitude Leg Dist Tot Dist Heading (true) Name
O LIRF APT - 0 ft / 0 m 41.79932˚ 12.23212˚ - 0 nm - -
KUTAK FIX - 0 ft / 0 m 43.25028˚ 18.54361˚ 292 nm 292 nm 71° / 75° -
BSW NDB - 0 ft / 0 m 44.47209˚ 25.95200˚ 328 nm 621 nm 75° / 80° BANEASA SOUTHWEST NDB
O LRBS APT - 0 ft / 0 m 44.49922˚ 26.08276˚ 5 nm 627 nm 74° / 74° -

Altitude Profile

Advertisement - Login to hide

Weather


0- 5 10 15 20 25 30 35+ Temperature / ° C

Clouds and Precipitation
Forecast for 2017-12-12 00:00 UTC. Updated 26 minutes ago

Ground ~20,000 ft ~40,000 ft Winds

LIRF

Details ICAO LIRF (FCO)
Name Roma Fiumicino Leonardo Da Vinci
Region Italy
Timezone Europe/Rome (UTC+1.0)
Stats Elevation 15 ft / 5 m (AMSL)
Location 41.810809° 12.250897°
Runways 3
Magnetic Variation 2.994° E

METAR

LIRF 111920Z 16021KT 8000 BKN022 16/12 Q1007 NOSIG

Decode

TAF

TAF LIRF 111700Z 1118/1224 18020G30KT 9999 BKN030 BECMG 1204/1206 17015KT TEMPO 1208/1218 4000 RA BECMG 1216/1218 26012KT TEMPO 1218/1224 4000 SHRA

Decode

Departure Runways

ID Width Length Bearing (true) Bearing (mag) Surface Threshold Offset Overrun Length
07 148 ft / 45 m 10,835 ft / 3,302 m 69.67° 66.68° Asphalt 1,365 ft / 416 m 0 ft / 0 m
16L 197 ft / 60 m 12,832 ft / 3,911 m 162.67° 159.68° Asphalt 0 ft / 0 m 0 ft / 0 m
16R 197 ft / 60 m 12,822 ft / 3,908 m 162.66° 159.67° Asphalt 0 ft / 0 m 0 ft / 0 m
25 148 ft / 45 m 10,835 ft / 3,302 m 249.70° 246.71° Asphalt 0 ft / 0 m 0 ft / 0 m
34L 197 ft / 60 m 12,822 ft / 3,908 m 342.67° 339.68° Asphalt 1,053 ft / 321 m 0 ft / 0 m
34R 197 ft / 60 m 12,832 ft / 3,911 m 342.68° 339.69° Asphalt 0 ft / 0 m 0 ft / 0 m

LRBS

Details ICAO LRBS (BBU)
Name Bucarest Baneasa
Region Romania
Timezone Europe/Bucharest (UTC+2.0)
Stats Elevation 297 ft / 91 m (AMSL)
Location 44.503193° 26.102113°
Runways 1
Magnetic Variation 5.594° E

METAR

LRBS 111930Z 00000KT CAVOK 02/M03 Q1016 NOSIG

Decode

TAF

TAF TAF LRBS 111700Z 1118/1218 VRB04KT CAVOK BECMG 1200/1202 26014KT

Decode

Destination Runways

ID Width Length Bearing (true) Bearing (mag) Surface Threshold Offset Overrun Length
07 148 ft / 45 m 10,480 ft / 3,194 m 73.93° 68.34° Concrete 787 ft / 240 m 0 ft / 0 m
25 148 ft / 45 m 10,480 ft / 3,194 m 253.96° 248.37° Concrete 2,609 ft / 795 m 0 ft / 0 m

Approach Navaids

Runway Type Ident Frequency Range Bearing (true) Bearing (mag) Slope Elevation
07 Localiser IBS 109.50 MHz 18 nm / 33 km 73.94° 68.34° - 297 ft / 91 m (AMSL)
07 Glidescope IBS 109.50 MHz 10 nm / 19 km 73.95° 68.35° 3.00° 297 ft / 91 m (AMSL)

Popular Alternatives